Observations for PRESTWICK CIV NAVY, United Kingdom (EGPK)

EGPK 231050Z 22010KT 8000 -DZ SCT010 BKN020 15/13 Q1010 
EGPK 231020Z 23010KT 9999 SCT010 BKN020 15/13 Q1009 
EGPK 230950Z 23009KT 180V250 9999 FEW015 SCT024 15/13 Q1009 
EGPK 230920Z 19006KT 170V230 9999 -RA FEW010 SCT020 14/12 Q1009 
EGPK 230850Z 20009KT 9999 -RA SCT010 BKN020 14/12 Q1009 
EGPK 230820Z 20009KT 9999 SCT010 BKN020 13/12 Q1009 
EGPK 230750Z 19004KT 160V220 7000 -RADZ SCT010 BKN020 13/11 Q1009   
EGPK 230720Z 16006KT 9999 SCT015 BKN025 12/11 Q1009 
EGPK 230650Z 16008KT 7000 VCSH SCT015 BKN025 12/10 Q1009
EGPK 230620Z 14007KT 9999 FEW020 SCT035 12/10 Q1009 
EGPK 230550Z 15008KT 9999 -SHRA SCT040 12/10 Q1009  
EGPK 230450Z 15007KT 9999 -SHRA SCT040 12/09 Q1010  
EGPK 230350Z 12003KT 9999 SCT040 11/09 Q1010
EGPK 230250Z 14004KT 9999 SCT040 10/09 Q1011
EGPK 230150Z 15006KT 9999 FEW046 10/08 Q1011
EGPK 230050Z 15005KT 9999 FEW046 09/07 Q1012
EGPK 222350Z 13002KT 9999 FEW046 09/07 Q1013
EGPK 222320Z VRB03KT 9999 FEW046 08/06 Q1013
EGPK 222250Z VRB02KT 9999 FEW046 08/06 Q1013
EGPK 222220Z 17002KT 9999 FEW046 09/06 Q1012
EGPK 222150Z 19003KT 9999 FEW046 09/06 Q1013
EGPK 222120Z 13003KT 9999 FEW046 09/06 Q1013
EGPK 222050Z 25005KT 9999 FEW046 10/06 Q1013
EGPK 222020Z 26006KT 9999 FEW046 10/06 Q1013
EGPK 221950Z 27005KT 9999 FEW046 10/06 Q1013
EGPK 221920Z 28004KT 9999 FEW036 10/05 Q1013
EGPK 221850Z 29005KT 260V320 9999 FEW036 10/05 Q1013
EGPK 221820Z 32004KT 9999 FEW036 10/05 Q1013
EGPK 221750Z 32013KT 9999 FEW028 10/05 Q1012
EGPK 221720Z 31011KT 9999 FEW028 10/05 Q1012
EGPK 221650Z 31013KT 9999 FEW028 11/04 Q1012
EGPK 221620Z 29012KT 9999 FEW030 11/06 Q1011
EGPK 221550Z 29015KT 9999 FEW030 11/06 Q1011
EGPK 221520Z 29018KT 9999 SCT026 11/06 Q1011
EGPK 221450Z 29016KT 9999 SCT025 11/06 Q1010
EGPK 221420Z 29018KT 9999 SCT025 11/07 Q1010
EGPK 221350Z 30017KT 9999 SCT025 11/07 Q1010
EGPK 221320Z 31016KT 9999 FEW018 SCT025 11/08 Q1009 
EGPK 221250Z 31019KT 9999 FEW018 SCT025 11/08 Q1009 
EGPK 221220Z 30018KT 9999 FEW018 SCT022 11/08 Q1009 
EGPK 221150Z 31019KT 9999 FEW015 SCT025 12/08 Q1008 
EGPK 221120Z 31020KT 9999 SCT015 SCT022 11/09 Q1008 
EGPK 221050Z 30022KT 9999 SCT015 SCT022 12/09 Q1007